Time;durP1;ratioP1;P1;durP2;ratioP2;P2;SDS_P1;SDS_P2;PMS_P1;PMS_P2;Temp;Humidity;BMP_temperature;BMP_pressure;BME280_temperature;BME280_humidity;BME280_pressure;Samples;Min_cycle;Max_cycle;Signal;HPM_P1;HPM_P2
2022/11/05 00:10:11;;;;;;;9.63;5.00;;;;;;;6.11;100.00;101307.94;4971884;28;20037;-52
2022/11/05 00:18:04;;;;;;;14.68;6.07;;;;;;;6.42;100.00;101343.44;4990899;28;20054;-54
2022/11/05 00:20:29;;;;;;;9.65;5.40;;;;;;;6.27;100.00;101322.66;4992449;28;20038;-54
2022/11/05 00:25:56;;;;;;;12.93;5.47;;;;;;;6.57;100.00;101389.53;4990192;28;20483;-56
2022/11/05 00:28:22;;;;;;;12.30;5.90;;;;;;;6.25;100.00;101334.84;4990984;28;20069;-54
2022/11/05 00:30:47;;;;;;;11.15;6.03;;;;;;;6.58;100.00;101405.25;4974773;28;20035;-55
2022/11/05 00:33:13;;;;;;;12.20;6.47;;;;;;;6.31;100.00;101357.47;4991912;28;20061;-52
2022/11/05 00:35:39;;;;;;;8.63;5.72;;;;;;;6.30;100.00;101345.31;4985353;28;20038;-54
2022/11/05 00:38:04;;;;;;;11.00;6.15;;;;;;;6.60;100.00;101400.84;4992170;28;20030;-56
2022/11/05 00:40:29;;;;;;;14.00;6.47;;;;;;;6.52;100.00;101391.31;4992409;28;20034;-54
2022/11/05 00:45:39;;;;;;;17.35;6.22;;;;;;;6.51;100.00;101408.75;4978750;28;20104;-54
2022/11/05 00:50:48;;;;;;;8.02;5.00;;;;;;;6.41;100.00;101401.00;4992952;28;20081;-54
2022/11/05 00:53:14;;;;;;;11.20;5.47;;;;;;;6.39;100.00;101408.00;4992994;28;20031;-53
2022/11/05 00:55:43;;;;;;;12.73;5.53;;;;;;;6.00;100.00;101355.06;4992465;28;20073;-55
2022/11/05 00:58:15;;;;;;;10.27;5.47;;;;;;;6.30;100.00;101403.69;5007854;28;20131;-56
2022/11/05 01:00:42;;;;;;;11.55;6.00;;;;;;;5.81;100.00;101336.84;4990824;28;20070;-53
2022/11/05 01:03:12;;;;;;;12.60;4.38;;;;;;;6.21;100.00;101427.25;4992814;28;20031;-53
2022/11/05 01:05:47;;;;;;;8.23;4.57;;;;;;;5.79;100.00;101349.91;4991507;28;20117;-53
2022/11/05 01:08:13;;;;;;;10.73;5.13;;;;;;;6.11;100.00;101415.09;4991670;28;20066;-57
2022/11/05 01:10:56;;;;;;;11.00;5.18;;;;;;;5.81;100.00;101379.50;4991258;28;20109;-52
2022/11/05 01:13:27;;;;;;;10.75;4.70;;;;;;;5.95;100.00;101427.41;4991463;28;20109;-56
2022/11/05 01:15:54;;;;;;;10.05;4.50;;;;;;;5.49;100.00;101357.84;4992586;28;20045;-54
2022/11/05 01:18:20;;;;;;;8.50;4.50;;;;;;;5.44;100.00;101355.28;4991550;28;20117;-55
2022/11/05 01:20:46;;;;;;;10.10;4.40;;;;;;;5.41;100.00;101365.72;5007711;28;20067;-52
2022/11/05 01:23:11;;;;;;;15.77;5.03;;;;;;;5.33;100.00;101354.44;4991351;28;20462;-55
2022/11/05 01:25:36;;;;;;;11.25;5.43;;;;;;;5.63;100.00;101411.78;4994100;28;20100;-56
2022/11/05 01:28:03;;;;;;;8.82;3.92;;;;;;;5.56;100.00;101401.38;4997039;28;20046;-54
2022/11/05 01:30:30;;;;;;;8.18;4.70;;;;;;;5.62;100.00;101417.91;4996538;28;20030;-54
2022/11/05 01:32:55;;;;;;;11.35;4.85;;;;;;;5.35;100.00;101373.56;5011659;28;20031;-57
2022/11/05 01:35:21;;;;;;;10.20;4.82;;;;;;;5.15;100.00;101349.28;4994864;28;20108;-51
2022/11/05 01:37:46;;;;;;;10.30;4.45;;;;;;;5.10;100.00;101348.41;4995132;28;20432;-56
2022/11/05 01:40:19;;;;;;;9.73;4.90;;;;;;;4.98;100.00;101340.59;4995087;28;20042;-54
2022/11/05 01:42:44;;;;;;;8.82;5.07;;;;;;;5.31;100.00;101405.75;4996512;28;20037;-53
2022/11/05 01:45:14;;;;;;;12.13;5.53;;;;;;;5.29;100.00;101410.13;4996545;28;20031;-55
2022/11/05 01:48:02;;;;;;;12.02;4.70;;;;;;;4.86;100.00;101343.22;4996087;28;20026;-58
2022/11/05 01:50:42;;;;;;;14.73;5.60;;;;;;;5.24;100.00;101405.78;4994950;28;20187;-57
2022/11/05 01:53:28;;;;;;;11.48;5.20;;;;;;;5.22;100.00;101407.53;4996390;28;20034;-53
2022/11/05 01:55:59;;;;;;;11.70;5.07;;;;;;;5.22;100.00;101423.22;4996114;28;20465;-57
2022/11/05 01:58:27;;;;;;;11.38;6.18;;;;;;;4.97;100.00;101376.25;4996180;28;20054;-55
2022/11/05 02:00:54;;;;;;;10.02;5.18;;;;;;;4.80;100.00;101349.31;4994834;28;20038;-56
2022/11/05 02:03:19;;;;;;;9.52;5.53;;;;;;;5.18;100.00;101411.03;4994953;28;20105;-54
2022/11/05 02:05:47;;;;;;;12.52;5.32;;;;;;;4.83;100.00;101356.28;4995008;28;20177;-53
2022/11/05 02:08:18;;;;;;;15.68;6.53;;;;;;;4.86;100.00;101356.28;4994830;28;20053;-54
2022/11/05 02:10:44;;;;;;;10.68;5.97;;;;;;;5.27;100.00;101430.16;4995728;28;20046;-57
2022/11/05 02:13:10;;;;;;;12.38;6.35;;;;;;;5.36;100.00;101424.06;4994026;28;20148;-56
2022/11/05 02:16:02;;;;;;;10.02;6.47;;;;;;;5.37;100.00;101408.38;4994391;28;20035;-56
2022/11/05 02:18:40;;;;;;;12.00;6.15;;;;;;;5.18;100.00;101356.22;4985057;28;20054;-57
2022/11/05 02:21:33;;;;;;;8.88;5.50;;;;;;;5.63;100.00;101424.00;4994485;28;20045;-56
2022/11/05 02:24:21;;;;;;;9.00;5.32;;;;;;;5.69;100.00;101416.97;4994406;28;20026;-55
2022/11/05 02:27:08;;;;;;;7.82;4.63;;;;;;;5.95;100.00;101434.38;4977671;28;20466;-51
2022/11/05 02:29:58;;;;;;;7.05;3.72;;;;;;;6.13;100.00;101440.34;4995655;28;20101;-57
2022/11/05 02:32:44;;;;;;;7.50;4.10;;;;;;;5.96;100.00;101386.44;4995491;28;20046;-55
2022/11/05 02:35:34;;;;;;;9.68;3.35;;;;;;;6.38;100.00;101443.72;4995348;28;20045;-56
2022/11/05 02:38:09;;;;;;;5.78;3.60;;;;;;;6.10;100.00;101375.03;4993894;28;20030;-55
2022/11/05 02:40:58;;;;;;;7.72;2.95;;;;;;;6.49;100.00;101439.28;4995479;28;20374;-57
2022/11/05 02:43:29;;;;;;;8.18;2.83;;;;;;;6.59;100.00;101458.41;4994159;28;20081;-55
2022/11/05 02:46:00;;;;;;;;;;;;;;;6.55;100.00;101431.41;4994522;28;20097;-56
2022/11/05 02:48:29;;;;;;;;;;;;;;;6.52;100.00;101436.66;4995533;28;20000;-57
2022/11/05 02:51:15;;;;;;;7.15;3.38;;;;;;;6.55;100.00;101444.50;4994131;28;19913;-54
2022/11/05 02:53:46;;;;;;;8.88;3.70;;;;;;;6.61;100.00;101436.59;4995193;28;20045;-56
2022/11/05 02:56:24;;;;;;;5.10;2.60;;;;;;;6.68;100.00;101432.22;4995058;28;20039;-54
2022/11/05 02:58:49;;;;;;;7.45;3.03;;;;;;;6.78;100.00;101428.63;4993654;28;20042;-55
2022/11/05 03:01:15;;;;;;;6.80;3.22;;;;;;;6.81;100.00;101431.22;4993568;28;20050;-56
2022/11/05 03:03:50;;;;;;;5.75;2.90;;;;;;;6.90;100.00;101430.28;4995490;28;20485;-58
2022/11/05 03:06:25;;;;;;;9.05;2.88;;;;;;;7.08;100.00;101438.84;4994620;28;20033;-56
2022/11/05 03:09:09;;;;;;;6.43;3.35;;;;;;;7.17;100.00;101444.03;4993431;28;20542;-55
2022/11/05 03:12:00;;;;;;;10.80;3.30;;;;;;;7.14;100.00;101428.34;4993854;28;20038;-57
2022/11/05 03:14:38;;;;;;;10.45;3.13;;;;;;;6.89;100.00;101368.38;4992902;28;20043;-55
2022/11/05 03:17:23;;;;;;;8.32;3.47;;;;;;;7.23;100.00;101430.88;4993286;28;20121;-56
2022/11/05 03:20:00;;;;;;;5.38;2.97;;;;;;;7.27;100.00;101414.22;4994344;28;20081;-57
2022/11/05 03:22:30;;;;;;;3.97;2.47;;;;;;;6.99;100.00;101349.06;4993201;28;20045;-57
2022/11/05 03:24:59;;;;;;;7.53;2.85;;;;;;;7.01;100.00;101344.69;4993748;28;20490;-59
2022/11/05 03:27:29;;;;;;;8.65;2.42;;;;;;;7.04;100.00;101345.53;4993331;28;20026;-57
2022/11/05 03:30:00;;;;;;;9.05;3.03;;;;;;;7.39;100.00;101413.25;4993218;28;20338;-57
2022/11/05 03:32:25;;;;;;;;;;;;;;;7.42;100.00;101412.34;4993282;28;20053;-58
2022/11/05 03:34:57;;;;;;;6.55;2.30;;;;;;;7.13;100.00;101381.22;4993294;28;20369;-55
2022/11/05 03:37:25;;;;;;;4.05;2.03;;;;;;;7.22;100.00;101417.78;4994286;28;20034;-56
2022/11/05 03:39:54;;;;;;;6.55;3.08;;;;;;;7.16;100.00;101407.38;4993006;28;20370;-56
2022/11/05 03:42:24;;;;;;;8.80;2.85;;;;;;;7.17;100.00;101416.97;4993104;28;20065;-58
2022/11/05 03:44:54;;;;;;;6.93;2.72;;;;;;;7.17;100.00;101417.84;5009290;28;20034;-57
2022/11/05 03:47:22;;;;;;;6.30;3.40;;;;;;;7.14;100.00;101412.63;4993935;28;20125;-57
2022/11/05 03:50:14;;;;;;;7.10;3.42;;;;;;;6.90;100.00;101373.56;4992597;28;20031;-57
2022/11/05 03:52:46;;;;;;;6.93;3.25;;;;;;;7.28;100.00;101420.34;4994150;28;20034;-55
2022/11/05 03:55:11;;;;;;;9.25;3.00;;;;;;;7.30;100.00;101413.31;4992653;28;20034;-56
2022/11/05 03:57:40;;;;;;;4.78;3.15;;;;;;;7.35;100.00;101424.66;4992635;28;20371;-57
2022/11/05 04:00:07;;;;;;;3.53;2.72;;;;;;;7.24;100.00;101390.69;4992829;28;20034;-56
2022/11/05 04:02:32;;;;;;;5.97;3.15;;;;;;;7.40;100.00;101412.38;4992695;28;20034;-52
2022/11/05 04:04:57;;;;;;;5.45;3.22;;;;;;;6.98;100.00;101363.91;4993819;28;20604;-58
2022/11/05 04:18:20;;;;;;;8.82;3.00;;;;;;;6.88;100.00;101429.44;4993678;28;20053;-54
2022/11/05 04:26:13;;;;;;;5.63;2.90;;;;;;;6.64;100.00;101430.47;4993206;28;20045;-56
2022/11/05 04:31:22;;;;;;;5.43;3.25;;;;;;;6.28;100.00;101391.47;4993470;28;20057;-55
2022/11/05 04:33:47;;;;;;;8.13;3.63;;;;;;;6.01;100.00;101355.94;4993461;28;20034;-55
2022/11/05 04:36:13;;;;;;;7.05;3.30;;;;;;;6.36;100.00;101423.69;4991962;28;20038;-55
2022/11/05 04:38:38;;;;;;;4.60;3.38;;;;;;;5.98;100.00;101375.09;4993295;28;20555;-53
2022/11/05 04:41:14;;;;;;;11.32;3.90;;;;;;;6.28;100.00;101451.59;4993191;28;20034;-54
2022/11/05 04:43:40;;;;;;;4.93;3.88;;;;;;;6.17;100.00;101434.25;4993081;28;20041;-51
2022/11/05 04:46:05;;;;;;;7.80;3.80;;;;;;;6.13;100.00;101429.91;4992089;28;20046;-49
2022/11/05 04:48:30;;;;;;;7.63;4.18;;;;;;;6.19;100.00;101435.09;4993075;28;20042;-53
2022/11/05 04:50:56;;;;;;;6.75;3.80;;;;;;;6.08;100.00;101415.13;4992009;28;20058;-53
2022/11/05 04:53:21;;;;;;;8.18;4.45;;;;;;;6.09;100.00;101436.03;4993108;28;20043;-52
2022/11/05 04:55:46;;;;;;;7.25;4.18;;;;;;;5.81;100.00;101389.09;4992822;28;20038;-54
2022/11/05 04:58:11;;;;;;;7.70;4.55;;;;;;;6.12;100.00;101437.75;4992484;28;20058;-55
2022/11/05 05:00:37;;;;;;;5.13;4.20;;;;;;;6.16;100.00;101448.19;4992792;28;20057;-55
2022/11/05 05:03:02;;;;;;;6.50;4.03;;;;;;;6.20;100.00;101436.84;4992846;28;20042;-51
2022/11/05 05:05:29;;;;;;;6.78;4.60;;;;;;;6.20;100.00;101435.97;4992892;28;20034;-50
2022/11/05 05:07:59;;;;;;;7.97;4.88;;;;;;;6.00;100.00;101375.97;4991687;28;20120;-53
2022/11/05 05:10:24;;;;;;;8.87;4.87;;;;;;;6.48;100.00;101447.16;4992729;28;20120;-55
2022/11/05 05:12:50;;;;;;;10.32;4.35;;;;;;;6.61;100.00;101447.06;4992922;28;20570;-54
2022/11/05 05:15:15;;;;;;;5.43;3.78;;;;;;;6.40;100.00;101384.44;4991390;28;20101;-57
2022/11/05 05:17:40;;;;;;;6.22;3.92;;;;;;;6.42;100.00;101373.97;4991748;28;20031;-55
2022/11/05 05:22:53;;;;;;;7.47;4.00;;;;;;;6.43;100.00;101375.69;4992930;28;20520;-55
2022/11/05 05:25:19;;;;;;;7.20;4.05;;;;;;;6.85;100.00;101447.78;4992594;28;20141;-55
2022/11/05 05:27:44;;;;;;;8.32;3.28;;;;;;;6.85;100.00;101456.50;4992628;28;20069;-56
2022/11/05 05:30:10;;;;;;;5.50;3.35;;;;;;;6.49;100.00;101384.38;4992773;28;20055;-54
2022/11/05 05:32:35;;;;;;;6.72;3.50;;;;;;;6.45;100.00;101380.03;4992632;28;20030;-55
2022/11/05 05:35:00;;;;;;;5.10;3.30;;;;;;;6.80;100.00;101440.81;4992765;28;20042;-51
2022/11/05 05:37:26;;;;;;;5.38;3.38;;;;;;;6.78;100.00;101445.19;4991316;28;20046;-57
2022/11/05 05:39:52;;;;;;;5.97;3.95;;;;;;;6.33;100.00;101372.31;4992420;28;20031;-52
2022/11/05 05:42:20;;;;;;;5.40;3.50;;;;;;;6.62;100.00;101432.25;4992554;28;20038;-56
2022/11/05 05:44:45;;;;;;;5.43;3.40;;;;;;;6.45;100.00;101437.56;4992682;28;20034;-52
2022/11/05 05:47:12;;;;;;;8.00;3.50;;;;;;;6.48;100.00;101444.56;4991001;28;20030;-55
2022/11/05 05:49:37;;;;;;;8.38;3.92;;;;;;;6.44;100.00;101445.44;4991329;28;20073;-55
2022/11/05 05:52:03;;;;;;;4.25;3.40;;;;;;;6.40;100.00;101444.56;4992418;28;20062;-56
2022/11/05 05:54:28;;;;;;;7.53;3.53;;;;;;;6.35;100.00;101455.94;4991322;28;20121;-54
2022/11/05 05:56:53;;;;;;;7.20;4.15;;;;;;;6.35;100.00;101453.31;4992612;28;20046;-55
2022/11/05 05:59:19;;;;;;;6.57;3.45;;;;;;;6.01;100.00;101416.88;4992330;28;20050;-55
2022/11/05 06:01:44;;;;;;;5.10;3.35;;;;;;;5.95;100.00;101384.72;4992292;28;20058;-52
2022/11/05 06:04:09;;;;;;;10.75;3.40;;;;;;;6.31;100.00;101448.97;4992374;28;20398;-54
2022/11/05 06:06:35;;;;;;;5.03;3.92;;;;;;;6.32;100.00;101456.81;4992371;28;20441;-54
2022/11/05 06:09:00;;;;;;;4.45;3.63;;;;;;;6.36;100.00;101449.84;4991063;28;20129;-54
2022/11/05 06:11:25;;;;;;;4.72;3.72;;;;;;;6.15;100.00;101422.94;4991723;28;20056;-56
2022/11/05 06:13:51;;;;;;;7.68;4.00;;;;;;;6.35;100.00;101462.03;4994919;28;20034;-55
2022/11/05 06:16:18;;;;;;;10.32;4.45;;;;;;;6.05;100.00;101413.41;4994531;28;20474;-54
2022/11/05 06:18:44;;;;;;;5.63;4.50;;;;;;;6.23;100.00;101451.66;4995966;28;20112;-57
2022/11/05 06:21:15;;;;;;;7.03;5.07;;;;;;;6.10;100.00;101461.28;4994408;28;20038;-56
2022/11/05 06:23:42;;;;;;;6.65;4.55;;;;;;;6.09;100.00;101464.78;4995658;28;20034;-57
2022/11/05 06:26:17;;;;;;;7.57;5.05;;;;;;;5.69;100.00;101416.97;4995741;28;20034;-56
2022/11/05 06:28:43;;;;;;;11.43;5.45;;;;;;;5.68;100.00;101414.41;5010858;28;20035;-57
2022/11/05 06:31:10;;;;;;;11.70;5.57;;;;;;;6.02;100.00;101475.25;4994365;28;20040;-55
2022/11/05 06:33:35;;;;;;;9.23;5.88;;;;;;;6.09;100.00;101482.22;4995366;28;20306;-52
2022/11/05 06:36:01;;;;;;;10.65;6.00;;;;;;;6.15;100.00;101476.97;4995358;28;20466;-54
2022/11/05 06:38:28;;;;;;;13.07;6.63;;;;;;;6.10;100.00;101460.44;4995432;28;20464;-56
2022/11/05 06:40:56;;;;;;;10.70;6.60;;;;;;;6.03;100.00;101430.84;4995577;28;20105;-56
2022/11/05 06:43:21;;;;;;;8.57;7.38;;;;;;;6.32;100.00;101472.53;4995432;28;20038;-54
2022/11/05 06:45:46;;;;;;;8.52;6.90;;;;;;;6.40;100.00;101473.34;4995488;28;20038;-51
2022/11/05 06:48:12;;;;;;;9.13;7.65;;;;;;;6.17;100.00;101418.56;4995243;28;20437;-54
2022/11/05 06:50:37;;;;;;;16.92;7.85;;;;;;;6.61;100.00;101473.22;4995169;28;20030;-50
2022/11/05 06:53:03;;;;;;;12.15;7.50;;;;;;;6.75;100.00;101484.47;4995370;28;20113;-56
2022/11/05 06:55:30;;;;;;;13.25;7.85;;;;;;;6.82;100.00;101476.56;4977791;28;20401;-53
2022/11/05 06:57:55;;;;;;;12.05;8.60;;;;;;;6.85;100.00;101464.34;4993587;28;20031;-54
2022/11/05 07:00:21;;;;;;;14.35;7.50;;;;;;;6.86;100.00;101466.06;4993861;28;20118;-56
2022/11/05 07:02:47;;;;;;;10.10;8.38;;;;;;;6.47;100.00;101399.22;4994805;28;20031;-55
2022/11/05 07:05:14;;;;;;;18.35;10.00;;;;;;;6.60;100.00;101421.78;4994661;28;20038;-55
2022/11/05 07:07:41;;;;;;;16.30;8.82;;;;;;;6.90;100.00;101490.47;4995052;28;20179;-53
2022/11/05 07:10:10;;;;;;;15.98;8.05;;;;;;;6.51;100.00;101434.91;4994872;28;20050;-55
2022/11/05 07:12:35;;;;;;;14.23;8.25;;;;;;;6.45;100.00;101434.09;4994913;28;20042;-54
2022/11/05 07:15:01;;;;;;;13.98;8.32;;;;;;;6.83;100.00;101488.78;4994814;28;20035;-53
2022/11/05 07:17:26;;;;;;;16.42;9.25;;;;;;;6.56;100.00;101435.78;4993567;28;20092;-57
2022/11/05 07:19:52;;;;;;;14.45;9.38;;;;;;;6.57;100.00;101428.78;4994731;28;20153;-56
2022/11/05 07:22:17;;;;;;;14.38;8.68;;;;;;;6.59;100.00;101427.03;4994391;28;20397;-52
2022/11/05 07:24:45;;;;;;;10.63;8.57;;;;;;;6.63;100.00;101423.50;4992746;28;20474;-53
2022/11/05 07:27:11;;;;;;;18.05;9.43;;;;;;;6.64;100.00;101433.09;4994078;28;20046;-56
2022/11/05 07:29:36;;;;;;;13.02;9.65;;;;;;;7.03;100.00;101498.25;4994233;28;20038;-57
2022/11/05 07:32:02;;;;;;;14.00;9.75;;;;;;;7.07;100.00;101492.09;4993520;28;20489;-55
2022/11/05 07:34:28;;;;;;;14.25;9.35;;;;;;;7.04;100.00;101480.75;4993276;28;20470;-53
2022/11/05 07:36:53;;;;;;;14.00;9.55;;;;;;;7.13;100.00;101502.50;4994108;28;20506;-56
2022/11/05 07:39:18;;;;;;;14.32;9.70;;;;;;;6.91;100.00;101451.22;4994357;28;20034;-52
2022/11/05 07:41:44;;;;;;;16.13;9.02;;;;;;;7.01;100.00;101452.00;4994351;28;20042;-56
2022/11/05 07:44:10;;;;;;;16.70;9.68;;;;;;;7.33;100.00;101495.34;4994004;28;20086;-52
2022/11/05 07:46:35;;;;;;;34.53;21.13;;;;;;;7.10;100.00;101433.59;4993879;28;20054;-55
2022/11/05 07:49:01;;;;;;;18.35;10.85;;;;;;;7.50;100.00;101496.97;4992740;28;20034;-54
2022/11/05 07:51:26;;;;;;;14.35;10.23;;;;;;;7.51;100.00;101510.03;4994205;28;20033;-53
2022/11/05 07:53:52;;;;;;;38.13;24.23;;;;;;;7.13;100.00;101434.44;4994244;28;20065;-54
2022/11/05 07:56:17;;;;;;;42.05;29.33;;;;;;;7.51;100.00;101498.69;4993665;28;20445;-57
2022/11/05 07:58:42;;;;;;;21.75;13.43;;;;;;;7.51;100.00;101499.56;4994071;28;20076;-55
2022/11/05 08:01:08;;;;;;;15.27;10.52;;;;;;;7.17;100.00;101425.69;4993881;28;20417;-53
2022/11/05 08:03:33;;;;;;;16.25;11.02;;;;;;;7.55;100.00;101489.94;4992657;28;20117;-56
2022/11/05 08:05:59;;;;;;;15.05;9.60;;;;;;;7.61;100.00;101495.13;4994030;28;20169;-56
2022/11/05 08:08:24;;;;;;;14.05;9.90;;;;;;;7.64;100.00;101487.22;4993934;28;20045;-52
2022/11/05 08:10:50;;;;;;;11.57;9.63;;;;;;;7.63;100.00;101486.34;4993110;28;20100;-54
2022/11/05 08:13:16;;;;;;;14.32;10.05;;;;;;;7.53;100.00;101494.31;4993805;28;20061;-55
2022/11/05 08:15:42;;;;;;;14.07;9.68;;;;;;;7.26;100.00;101429.97;4992235;28;20054;-55
2022/11/05 08:18:11;;;;;;;13.63;9.68;;;;;;;7.36;100.00;101442.06;4993420;28;20109;-57
2022/11/05 08:20:37;;;;;;;13.43;10.07;;;;;;;7.72;100.00;101496.75;4993545;28;20034;-57
2022/11/05 08:23:03;;;;;;;16.75;10.00;;;;;;;7.75;100.00;101490.59;4993458;28;20387;-54
2022/11/05 08:25:28;;;;;;;13.07;10.00;;;;;;;7.48;100.00;101441.97;4992403;28;20042;-54
2022/11/05 08:27:58;;;;;;;17.98;12.65;;;;;;;7.86;100.00;101488.72;4992319;28;20038;-57
2022/11/05 08:30:24;;;;;;;15.25;9.95;;;;;;;7.88;100.00;101495.69;4991989;28;20116;-55
2022/11/05 08:32:49;;;;;;;18.88;10.40;;;;;;;7.94;100.00;101502.59;4992415;28;20109;-55
2022/11/05 08:35:15;;;;;;;12.75;10.18;;;;;;;7.92;100.00;101480.78;4993057;28;20080;-56
2022/11/05 08:37:40;;;;;;;11.77;9.45;;;;;;;8.01;100.00;101491.19;4992183;28;20038;-54
2022/11/05 08:40:06;;;;;;;14.95;9.68;;;;;;;7.96;100.00;101486.88;4993267;28;20038;-55
2022/11/05 08:42:31;;;;;;;13.80;8.25;;;;;;;7.81;100.00;101430.25;4993104;28;20030;-56
2022/11/05 08:44:57;;;;;;;14.52;9.70;;;;;;;8.28;100.00;101490.00;4991836;28;20144;-56
2022/11/05 08:47:22;;;;;;;18.35;8.23;;;;;;;8.03;100.00;101434.34;4992703;28;20042;-55
2022/11/05 08:49:48;;;;;;;13.30;8.65;;;;;;;8.25;100.00;101438.44;4993336;28;20037;-53
2022/11/05 08:52:13;;;;;;;12.60;7.93;;;;;;;8.83;100.00;101512.00;4993097;28;20035;-55
2022/11/05 08:54:39;;;;;;;12.48;6.75;;;;;;;8.70;100.00;101441.34;4993020;28;20097;-54
2022/11/05 08:57:04;;;;;;;11.43;7.32;;;;;;;9.22;100.00;101502.66;4993034;28;20356;-56
2022/11/05 08:59:30;;;;;;;9.73;6.43;;;;;;;9.41;100.00;101490.91;4992814;28;20047;-53
2022/11/05 09:01:55;;;;;;;10.77;6.72;;;;;;;9.63;100.00;101490.53;4992759;28;20045;-55
2022/11/05 09:04:21;;;;;;;12.30;5.75;;;;;;;9.47;100.00;101437.38;4992487;28;20054;-54
2022/11/05 09:06:46;;;;;;;13.27;5.47;;;;;;;9.97;100.00;101499.53;4992855;28;20109;-57
2022/11/05 09:09:11;;;;;;;7.65;4.78;;;;;;;10.01;100.00;101495.94;4992708;28;20485;-59
2022/11/05 09:11:37;;;;;;;8.38;5.40;;;;;;;9.79;100.00;101442.91;4992392;28;20049;-54
2022/11/05 09:14:02;;;;;;;6.63;4.28;;;;;;;10.26;100.00;101498.97;4992142;28;20129;-58
2022/11/05 09:16:28;;;;;;;7.28;4.47;;;;;;;10.00;100.00;101447.75;4991705;28;20038;-53
2022/11/05 09:18:55;;;;;;;6.20;4.13;;;;;;;10.39;100.00;101511.84;4991523;28;20087;-51
2022/11/05 09:21:20;;;;;;;11.40;4.55;;;;;;;10.12;100.00;101451.88;4992291;28;20094;-53
2022/11/05 09:23:46;;;;;;;6.32;3.80;;;;;;;10.57;100.00;101516.72;5008089;28;20478;-54
2022/11/05 09:26:12;;;;;;;10.18;4.53;;;;;;;10.63;100.00;101529.75;4992652;28;20482;-54
2022/11/05 09:28:38;;;;;;;10.23;4.20;;;;;;;10.68;100.00;101509.44;4991396;28;20034;-54
2022/11/05 09:31:08;;;;;;;6.68;4.80;;;;;;;10.52;100.00;101470.34;5007610;28;20049;-53
2022/11/05 09:33:35;;;;;;;9.43;3.50;;;;;;;10.63;100.00;101478.84;5007742;28;20113;-51
2022/11/05 09:36:01;;;;;;;8.00;4.00;;;;;;;10.97;100.00;101527.25;4992501;28;20124;-50
2022/11/05 09:38:26;;;;;;;5.53;3.28;;;;;;;11.02;100.00;101535.91;4992621;28;20444;-52
2022/11/05 09:41:34;;;;;;;5.18;3.20;;;;;;;11.01;100.00;101541.19;5008040;28;20073;-54
2022/11/05 09:44:03;;;;;;;4.65;3.33;;;;;;;10.68;100.00;101488.38;4954550;28;20074;-53
2022/11/05 09:46:39;;;;;;;8.73;3.30;;;;;;;10.73;100.00;101494.44;4986448;28;20054;-52
2022/11/05 09:49:06;;;;;;;5.35;3.08;;;;;;;11.05;100.00;101551.63;5011264;28;20033;-54
2022/11/05 09:51:33;;;;;;;6.65;3.78;;;;;;;10.65;100.00;101480.56;4995094;28;20080;-54
2022/11/05 09:53:59;;;;;;;8.00;3.47;;;;;;;11.00;100.00;101542.13;5011188;28;20026;-54
2022/11/05 09:56:30;;;;;;;7.65;3.30;;;;;;;11.01;100.00;101551.72;4996243;28;20136;-52
2022/11/05 09:59:25;;;;;;;7.75;3.80;;;;;;;10.80;100.00;101507.47;4994730;28;20054;-52
2022/11/05 10:01:57;;;;;;;8.95;3.83;;;;;;;10.81;100.00;101481.06;4995532;28;20060;-51
2022/11/05 10:04:24;;;;;;;6.00;3.63;;;;;;;11.35;100.00;101534.25;4994614;28;20053;-52
2022/11/05 10:07:00;;;;;;;6.30;3.13;;;;;;;11.64;100.00;101539.66;4994950;28;20365;-53
2022/11/05 10:09:38;;;;;;;10.23;2.70;;;;;;;11.67;100.00;101517.59;4994848;28;20057;-51
2022/11/05 10:12:09;;;;;;;8.35;4.95;;;;;;;11.95;100.00;101542.38;5010768;28;20039;-53
2022/11/05 10:14:40;;;;;;;3.60;2.10;;;;;;;11.92;100.00;101563.56;4995598;28;20053;-53
2022/11/05 10:17:19;;;;;;;5.60;2.92;;;;;;;11.85;100.00;101567.25;5010847;28;20045;-51
2022/11/05 10:20:16;;;;;;;7.07;3.00;;;;;;;11.80;100.00;101566.50;4994568;28;20065;-52
2022/11/05 10:22:41;;;;;;;4.65;2.47;;;;;;;11.75;100.00;101558.72;5011024;28;20030;-53
2022/11/05 10:25:18;;;;;;;3.35;2.47;;;;;;;11.39;100.00;101490.19;4995482;28;20053;-51
2022/11/05 10:27:49;;;;;;;5.65;2.75;;;;;;;11.75;100.00;101555.22;4995542;28;20038;-50
2022/11/05 10:30:14;;;;;;;;;;;;;;;11.81;100.00;101566.50;5011048;28;20030;-51
2022/11/05 10:32:41;;;;;;;4.15;2.80;;;;;;;11.89;100.00;101573.31;4995489;28;20440;-49
2022/11/05 10:35:12;;;;;;;6.75;3.25;;;;;;;11.61;100.00;101505.44;5010019;28;20061;-54
2022/11/05 10:37:37;;;;;;;7.68;3.35;;;;;;;11.58;100.00;101510.81;4994090;28;20022;-49
2022/11/05 10:40:17;;;;;;;6.72;3.20;;;;;;;11.87;100.00;101554.91;4994162;28;20035;-51
2022/11/05 10:43:03;;;;;;;4.93;2.53;;;;;;;11.74;100.00;101554.34;4994362;28;20034;-54
2022/11/05 10:45:43;;;;;;;8.40;3.20;;;;;;;11.76;100.00;101562.25;4994039;28;20034;-50
2022/11/05 10:48:20;;;;;;;3.60;2.70;;;;;;;11.67;100.00;101568.59;4993894;28;20034;-53
2022/11/05 10:50:46;;;;;;;3.85;2.60;;;;;;;11.60;100.00;101574.03;4990209;28;20509;-53
2022/11/05 10:53:32;;;;;;;4.55;2.63;;;;;;;11.60;100.00;101567.00;5002123;28;20030;-54
2022/11/05 10:55:58;;;;;;;5.50;2.30;;;;;;;11.58;100.00;101550.34;4993094;28;20437;-57
2022/11/05 10:58:33;;;;;;;5.05;2.58;;;;;;;11.32;100.00;101513.22;4991580;28;20057;-55
2022/11/05 11:01:16;;;;;;;7.15;2.38;;;;;;;11.49;100.00;101547.94;4994817;28;20371;-55
2022/11/05 11:03:46;;;;;;;4.72;2.38;;;;;;;11.70;100.00;101563.22;5009036;28;20397;-55
2022/11/05 11:06:22;;;;;;;4.97;2.20;;;;;;;11.71;100.00;101566.75;4994643;28;20046;-55
2022/11/05 11:08:49;;;;;;;5.68;2.08;;;;;;;11.75;100.00;101576.31;5009698;28;20053;-51
2022/11/05 11:11:46;;;;;;;3.00;2.22;;;;;;;11.88;100.00;101582.16;4994710;28;20034;-53
2022/11/05 11:14:12;;;;;;;3.97;1.85;;;;;;;11.99;100.00;101578.34;4955511;28;20043;-58
2022/11/05 11:16:41;;;;;;;6.50;2.53;;;;;;;11.73;100.00;101515.69;4994612;28;20085;-53
2022/11/05 11:19:19;;;;;;;4.97;1.80;;;;;;;12.12;100.00;101565.66;4993110;28;20038;-53
2022/11/05 11:21:44;;;;;;;4.90;1.60;;;;;;;12.16;100.00;101573.47;4994415;28;20030;-56
2022/11/05 11:24:19;;;;;;;3.75;1.80;;;;;;;12.24;100.00;101575.88;4994496;28;20108;-57
2022/11/05 11:26:44;;;;;;;3.15;1.88;;;;;;;12.35;100.00;101576.44;5009770;28;20084;-55
2022/11/05 11:29:24;;;;;;;8.48;2.42;;;;;;;12.05;100.00;101517.47;4994506;28;20466;-56
2022/11/05 11:31:53;;;;;;;5.25;2.05;;;;;;;12.04;100.00;101504.31;4994271;28;20081;-54
2022/11/05 11:34:28;;;;;;;7.50;1.88;;;;;;;12.29;100.00;101561.66;5009437;28;20501;-55
2022/11/05 11:37:04;;;;;;;6.70;1.95;;;;;;;12.12;100.00;101508.47;4994617;28;20375;-54
2022/11/05 11:39:30;;;;;;;4.50;1.92;;;;;;;12.50;100.00;101580.44;4994289;28;20061;-53
2022/11/05 11:41:58;;;;;;;6.88;1.90;;;;;;;12.45;100.00;101563.84;4992943;28;20073;-55
2022/11/05 11:44:28;;;;;;;5.28;1.85;;;;;;;12.13;100.00;101512.84;4992692;28;20177;-50
2022/11/05 11:46:55;;;;;;;4.00;1.63;;;;;;;12.46;100.00;101569.13;4992807;28;20356;-57
2022/11/05 11:49:32;;;;;;;7.72;1.73;;;;;;;12.48;100.00;101550.56;4992926;28;20547;-56
2022/11/05 11:52:09;;;;;;;5.45;1.60;;;;;;;12.33;100.00;101523.69;4994038;28;20459;-55
2022/11/05 11:54:35;;;;;;;5.10;1.98;;;;;;;12.62;100.00;101561.59;4992388;28;20031;-48
2022/11/05 11:57:00;;;;;;;4.55;2.33;;;;;;;12.56;100.00;101545.94;5009316;28;20045;-54
2022/11/05 11:59:27;;;;;;;4.78;1.55;;;;;;;12.58;100.00;101571.38;4993745;28;20042;-47
2022/11/05 12:02:16;;;;;;;5.72;2.13;;;;;;;12.52;100.00;101568.91;4992787;28;20034;-56
2022/11/05 12:05:04;;;;;;;5.57;2.45;;;;;;;12.37;100.00;101546.44;5009097;28;20555;-55
2022/11/05 12:07:54;;;;;;;6.07;2.45;;;;;;;12.48;100.00;101575.22;4992583;28;20031;-52
2022/11/05 12:10:38;;;;;;;6.35;2.22;;;;;;;12.51;100.00;101559.28;4992165;28;20173;-55
2022/11/05 12:13:16;;;;;;;4.20;1.92;;;;;;;12.50;100.00;101561.94;4992552;28;20022;-55
2022/11/05 12:15:56;;;;;;;4.85;1.70;;;;;;;12.41;100.00;101563.94;4993039;28;20045;-55